• Join FlightAware (Why Join?)
  • Login
  • US Flag 
04:26AM EST


 

Airport Tracker/Info


-or-


 

Live Flight TrackerFlight Track Log ✈ AWE1714 ✈ 18-Aug-2014 ✈ KPHL - KORD

Flight Track Log - Related Links

Times and Time Zones

All times are in EDT time to prevent confusion due to time zone crossing. See the AWE1714 flight status page for this flight to view local times or setup timezone preferences in your user account.

Time Position Orientation Groundspeed Altitude Reporting Facility
EDT Latitude Longitude Course Direction KTS MPH feet Rate Location/Type
10:59PM 39.8629 -75.2649 251° West 159 183 1,700  Level FlightAware ADS-B (KPHL)
11:01PM 39.8000 -75.4167 251° West 267 307 4,500 2,032 Climbing Philadelphia TRACON
11:02PM 40.1401 -75.4900 323° Northwest  Level FlightAware Approximate
11:02PM 39.8333 -75.5000 298° West 267 307 8,000  Level Philadelphia TRACON
11:03PM 40.2309 -75.5713 311° West  Level FlightAware Approximate
11:03PM 39.9167 -75.5167 351° North 289 333 10,600  Level Philadelphia TRACON
11:04PM 40.3058 -75.6836 311° West  Level FlightAware Approximate
11:04PM 40.0000 -75.5167 360° North 303 349 12,000  Level Philadelphia TRACON
11:05PM 40.1025 -75.5417 349° North 301 346 12,000 336 Level New York Center
11:06PM 40.1958 -75.5561 353° North 301 346 12,800 958 Climbing New York Center
11:07PM 40.2697 -75.6294 323° Northwest 313 360 13,900 1,000 Climbing New York Center
11:08PM 40.3325 -75.7264 310° West 355 409 14,800 1,240 Climbing New York Center
11:09PM 40.4092 -75.8381 312° West 391 450 16,400 1,525 Climbing New York Center
11:10PM 40.4575 -75.9728 295° West 414 476 17,800 1,488 Climbing New York Center
11:11PM 40.4789 -76.1436 279° West 414 476 19,400 1,475 Climbing New York Center
11:12PM 40.5031 -76.2956 282° West 426 490 20,800 1,261 Climbing New York Center
11:13PM 40.5269 -76.4558 281° West 437 503 21,900 1,059 Climbing New York Center
11:14PM 40.5522 -76.6164 282° West 447 514 22,900 984 Climbing New York Center
11:15PM 40.5672 -76.7789 277° West 454 522 23,900 1,000 Climbing New York Center
11:16PM 40.5814 -76.9469 276° West 454 522 24,900 1,017 Climbing New York Center
11:17PM 40.5958 -77.1094 277° West 459 528 25,900 1,059 Climbing New York Center
11:18PM 40.6119 -77.2722 277° West 459 528 27,000 1,032 Climbing New York Center
11:20PM 40.6344 -77.5300 277° West 443 510 28,600 987 Climbing Cleveland Center
11:21PM 40.6469 -77.6908 276° West 443 510 29,600 984 Climbing Cleveland Center
11:22PM 40.6622 -77.8486 277° West 441 507 30,600 1,082 Climbing Cleveland Center
11:23PM 40.6842 -78.0044 281° West 439 505 31,800 1,230 Climbing Cleveland Center
11:24PM 40.7056 -78.1578 280° West 429 494 33,100 1,230 Climbing Cleveland Center
11:25PM 40.7264 -78.3078 280° West 423 487 34,300 1,131 Climbing Cleveland Center
11:26PM 40.7467 -78.4578 280° West 418 481 35,400 836 Climbing Cleveland Center
11:27PM 40.7658 -78.6058 280° West 412 474 36,000 298 Climbing Cleveland Center
11:28PM 40.7869 -78.7606 280° West 421 484 36,000  Level Cleveland Center
11:29PM 40.8081 -78.9197 280° West 436 502 36,000  Level Cleveland Center
11:30PM 40.8306 -79.0869 280° West 442 509 36,000  Level Cleveland Center
11:31PM 40.8514 -79.2483 280° West 445 512 36,000  Level Cleveland Center
11:32PM 40.8697 -79.4094 279° West 446 513 36,000  Level Cleveland Center
11:33PM 40.8833 -79.5706 276° West 446 513 36,000  Level Cleveland Center
11:34PM 40.8983 -79.7322 277° West 445 512 36,000  Level Cleveland Center
11:35PM 40.9153 -79.9239 277° West 444 511 36,000  Level Cleveland Center
11:36PM 40.9289 -80.0847 276° West 444 511 36,000  Level Cleveland Center
11:37PM 40.9431 -80.2453 277° West 444 511 36,000  Level Cleveland Center
11:38PM 40.9567 -80.4083 276° West 449 517 36,000  Level Cleveland Center
11:39PM 40.9706 -80.5703 277° West 447 514 36,000  Level Cleveland Center
11:40PM 40.9833 -80.7328 276° West 446 513 36,000  Level Cleveland Center
11:41PM 40.9972 -80.8950 277° West 446 513 36,000  Level Cleveland Center
11:42PM 41.0089 -81.0558 276° West 442 509 36,000  Level Cleveland Center
11:43PM 41.0214 -81.2175 276° West 441 507 36,000  Level Cleveland Center
11:44PM 41.0322 -81.3775 275° West 439 505 36,000  Level Cleveland Center
11:45PM 41.0439 -81.5392 276° West 440 506 36,000  Level Cleveland Center
11:46PM 41.0575 -81.7328 275° West 440 506 36,000  Level Cleveland Center
11:47PM 41.0697 -81.8936 276° West 440 506 36,000  Level Cleveland Center
11:48PM 41.0792 -82.0528 275° West 439 505 36,000  Level Cleveland Center
11:49PM 41.0906 -82.1917 276° West 439 505 36,000  Level Cleveland Center
11:50PM 41.1014 -82.3519 275° West 439 505 36,000  Level Cleveland Center
11:51PM 41.1122 -82.5456 274° West 440 506 36,000  Level Cleveland Center
11:52PM 41.1228 -82.7000 275° West 440 506 36,000  Level Cleveland Center
11:53PM 41.1322 -82.8614 274° West 440 506 36,000  Level Cleveland Center
11:54PM 41.1428 -83.0208 275° West 438 504 36,000  Level Cleveland Center
11:55PM 41.1522 -83.1842 274° West 440 506 36,000  Level Cleveland Center
11:56PM 41.1622 -83.3489 275° West 443 510 36,000  Level Cleveland Center
11:58PM 41.1706 -83.5117 274° West 443 510 36,000  Level Cleveland Center
11:59PM 41.1789 -83.6739 274° West 443 510 36,000  Level Cleveland Center
12:00AM 41.1883 -83.8353 274° West 442 509 36,000  Level Cleveland Center
12:01AM 41.1975 -84.0042 274° West 438 504 36,000  Level Cleveland Center
12:02AM 41.2056 -84.1683 274° West 443 510 36,000  Level Cleveland Center
12:03AM 41.2139 -84.3294 274° West 442 509 36,000  Level Cleveland Center
12:04AM 41.2214 -84.4925 274° West 442 509 36,000  Level Cleveland Center
12:05AM 41.2292 -84.6558 274° West 442 509 36,000  Level Cleveland Center
12:05AM 41.2336 -84.7511 274° West 441 507 36,000  Level Chicago Center
12:06AM 41.2400 -84.9122 273° West 438 504 36,000  Level Chicago Center
12:07AM 41.2464 -85.0747 273° West 438 504 36,000  Level Chicago Center
12:08AM 41.2533 -85.2364 273° West 438 504 36,000  Level Chicago Center
12:09AM 41.2617 -85.4019 274° West 440 506 36,000  Level Chicago Center
12:10AM 41.2864 -85.5633 282° West 444 511 36,000 -893 Level Chicago Center
12:11AM 41.3106 -85.7222 281° West 437 503 34,200 -2,777 Descending Chicago Center
12:12AM 41.3333 -85.8819 281° West 435 501 30,400 -2,628 Descending Chicago Center
12:13AM 41.3569 -86.0436 281° West 440 506 28,900 -1,983 Descending Chicago Center
12:14AM 41.3803 -86.2050 281° West 442 509 26,400 -2,557 Descending Chicago Center
12:15AM 41.4036 -86.3611 281° West 433 498 23,700 -2,628 Descending Chicago Center
12:16AM 41.4247 -86.5144 280° West 425 489 21,100 -2,430 Descending Chicago Center
12:17AM 41.4461 -86.6614 281° West 409 471 18,800 -2,430 Descending Chicago Center
12:18AM 41.4681 -86.8228 280° West 398 458 16,200 -2,331 Descending Chicago Center
12:19AM 41.4881 -86.9614 281° West 385 443 14,100 -2,083 Descending Chicago Center
12:20AM 41.5067 -87.0950 281° West 372 428 12,000 -1,537 Descending Chicago Center
12:21AM 41.5481 -87.2089 296° West 365 420 11,000 -689 Descending Chicago Center
12:22AM 41.6125 -87.3111 310° West 360 414 10,600 -545 Descending Chicago Center
12:23AM 41.6750 -87.4094 310° West 354 407 9,900 -992 Descending Chicago Center
12:24AM 41.7300 -87.4828 315° West 286 329 8,600 -1,240 Descending Chicago Center
12:25AM 41.8067 -87.5031 349° North 284 327 7,400 -942 Descending Chicago Center
12:26AM 41.8767 -87.5192 350° North 255 293 6,700 -694 Descending Chicago Center
12:27AM 41.9281 -87.5408 343° North 211 243 6,000 -900 Descending Chicago Center
12:28AM 41.9647 -87.5944 313° West 202 232 4,900 -1,041 Descending Chicago Center
12:29AM 41.9650 -87.6650 270° West 193 222 3,900 -992 Descending Chicago Center
12:30AM 41.9647 -87.7339 270° West 189 217 2,900 -893 Descending Chicago Center
12:31AM 41.9656 -87.7969 271° West 178 205 2,100 -744 Descending Chicago Center
12:32AM 41.9650 -87.8467 269° West 149 171 1,400 -496 Descending Chicago Center
12:33AM 41.9664 -87.9064 272° West 143 165 1,100 -295 Descending Chicago Center
12:35AM 41.9793 -87.9074 79° East  Level Estimated